createdAt,value
2018-05-16T00:02:04.397Z,10.77
2018-05-16T00:04:32.007Z,12.63
2018-05-16T00:06:59.534Z,10.33
2018-05-16T00:09:27.041Z,11.20
2018-05-16T00:11:54.594Z,10.07
2018-05-16T00:14:22.191Z,9.07
2018-05-16T00:16:50.461Z,8.30
2018-05-16T00:19:18.730Z,11.90
2018-05-16T00:21:46.265Z,9.43
2018-05-16T00:24:13.763Z,13.17
2018-05-16T00:26:42.046Z,9.40
2018-05-16T00:29:09.591Z,9.17
2018-05-16T00:31:37.919Z,12.13
2018-05-16T00:34:05.436Z,11.47
2018-05-16T00:36:33.717Z,11.73
2018-05-16T00:39:01.219Z,10.60
2018-05-16T00:41:28.787Z,11.67
2018-05-16T00:43:56.327Z,11.03
2018-05-16T00:46:23.831Z,12.40
2018-05-16T00:48:51.346Z,12.57
2018-05-16T00:51:30.651Z,9.80
2018-05-16T00:53:58.187Z,10.63
2018-05-16T00:56:25.704Z,11.50
2018-05-16T00:58:53.223Z,12.37
2018-05-16T01:01:20.801Z,12.07
2018-05-16T01:03:48.371Z,11.53
2018-05-16T01:06:15.910Z,12.50
2018-05-16T01:08:44.206Z,13.17
2018-05-16T01:11:11.761Z,12.90
2018-05-16T01:13:40.064Z,14.43
2018-05-16T01:16:07.568Z,14.33
2018-05-16T01:18:35.104Z,15.00
2018-05-16T01:21:02.644Z,12.33
2018-05-16T01:23:30.189Z,13.30
2018-05-16T01:25:57.716Z,12.70
2018-05-16T01:28:25.829Z,13.00
2018-05-16T01:30:53.365Z,15.83
2018-05-16T01:33:20.891Z,14.47
2018-05-16T01:35:48.403Z,16.20
2018-05-16T01:38:15.928Z,14.23
2018-05-16T01:40:43.451Z,16.40
2018-05-16T01:43:10.968Z,16.53
2018-05-16T01:45:39.330Z,15.00
2018-05-16T01:48:06.874Z,15.10
2018-05-16T01:50:34.404Z,14.30
2018-05-16T01:53:01.907Z,16.83
2018-05-16T01:55:29.493Z,15.87
2018-05-16T01:57:56.994Z,17.47
2018-05-16T02:00:24.511Z,16.67
2018-05-16T02:02:52.033Z,17.00
2018-05-16T02:05:19.582Z,17.97
2018-05-16T02:07:47.093Z,17.33
2018-05-16T02:10:15.388Z,14.37
2018-05-16T02:12:42.912Z,17.17
2018-05-16T02:15:10.447Z,15.13
2018-05-16T02:17:37.950Z,16.70
2018-05-16T02:20:05.449Z,20.80
2018-05-16T02:22:32.976Z,18.80
2018-05-16T02:25:01.245Z,18.20
2018-05-16T02:27:28.752Z,16.60
2018-05-16T02:29:56.309Z,21.23
2018-05-16T02:32:23.824Z,14.43
2018-05-16T02:34:51.341Z,19.63
2018-05-16T02:37:18.905Z,18.93
2018-05-16T02:39:46.441Z,20.47
2018-05-16T02:42:13.963Z,22.57
2018-05-16T02:44:41.582Z,21.67
2018-05-16T02:47:09.153Z,20.23
2018-05-16T02:49:36.721Z,21.90
2018-05-16T02:52:04.248Z,24.90
2018-05-16T02:54:31.919Z,25.40
2018-05-16T02:56:59.343Z,24.00
2018-05-16T02:59:26.934Z,23.00
2018-05-16T03:01:54.443Z,19.47
2018-05-16T03:04:21.955Z,23.00
2018-05-16T03:06:49.489Z,18.33
2018-05-16T03:09:17.010Z,18.97
2018-05-16T03:11:44.537Z,21.80
2018-05-16T03:14:12.083Z,20.60
2018-05-16T03:16:40.355Z,20.83
2018-05-16T03:19:07.872Z,21.40
2018-05-16T03:21:35.420Z,20.83
2018-05-16T03:24:02.954Z,21.30
2018-05-16T03:26:30.507Z,19.90
2018-05-16T03:28:58.034Z,21.97
2018-05-16T03:31:26.333Z,19.07
2018-05-16T03:33:54.654Z,25.13
2018-05-16T03:36:22.197Z,20.47
2018-05-16T03:38:49.732Z,17.23
2018-05-16T03:41:18.013Z,22.67
2018-05-16T03:43:46.273Z,21.57
2018-05-16T03:46:13.793Z,21.30
2018-05-16T03:48:41.296Z,23.17
2018-05-16T03:51:08.830Z,24.60
2018-05-16T03:53:36.357Z,21.13
2018-05-16T03:56:03.869Z,18.70
2018-05-16T03:58:43.760Z,22.83
2018-05-16T04:01:23.108Z,21.57
2018-05-16T04:04:10.173Z,23.13
2018-05-16T04:06:37.687Z,25.33
2018-05-16T04:09:05.203Z,24.10
2018-05-16T04:11:32.734Z,24.70
2018-05-16T04:14:00.257Z,24.97
2018-05-16T04:16:27.762Z,17.77
2018-05-16T04:18:55.290Z,25.17
2018-05-16T04:21:22.816Z,24.47
2018-05-16T04:23:50.317Z,26.07
2018-05-16T04:26:17.816Z,21.23
2018-05-16T04:28:45.403Z,23.43
2018-05-16T04:31:13.021Z,21.43
2018-05-16T04:33:40.554Z,23.57
2018-05-16T04:36:08.173Z,21.03
2018-05-16T04:38:35.770Z,19.10
2018-05-16T04:41:03.349Z,22.37
2018-05-16T04:43:30.895Z,21.20
2018-05-16T04:45:58.474Z,25.63
2018-05-16T04:48:26.007Z,24.20
2018-05-16T04:50:53.538Z,24.67
2018-05-16T04:53:21.060Z,25.43
2018-05-16T04:55:48.588Z,22.90
2018-05-16T04:58:16.080Z,26.37
2018-05-16T05:00:43.619Z,24.97
2018-05-16T05:03:11.129Z,24.83
2018-05-16T05:05:38.645Z,26.87
2018-05-16T05:08:06.190Z,24.90
2018-05-16T05:10:33.737Z,26.37
2018-05-16T05:13:01.237Z,23.67
2018-05-16T05:15:28.775Z,18.53
2018-05-16T05:17:56.307Z,24.30
2018-05-16T05:20:24.640Z,23.40
2018-05-16T05:22:52.886Z,24.40
2018-05-16T05:25:20.386Z,20.00
2018-05-16T05:27:47.974Z,25.60
2018-05-16T05:30:16.302Z,16.33
2018-05-16T05:32:43.821Z,23.53
2018-05-16T05:35:12.106Z,20.53
2018-05-16T05:37:39.685Z,23.67
2018-05-16T05:40:07.220Z,22.83
2018-05-16T05:42:34.738Z,19.37
2018-05-16T05:45:02.266Z,23.30
2018-05-16T05:47:29.769Z,25.17
2018-05-16T05:49:57.286Z,20.13
2018-05-16T05:52:24.852Z,21.03
2018-05-16T05:54:52.355Z,23.20
2018-05-16T05:57:19.880Z,20.20
2018-05-16T05:59:47.479Z,21.67
2018-05-16T06:02:15.003Z,24.60
2018-05-16T06:04:42.510Z,26.00
2018-05-16T06:07:10.037Z,23.93
2018-05-16T06:09:37.547Z,18.43
2018-05-16T06:12:05.886Z,23.40
2018-05-16T06:14:33.393Z,24.03
2018-05-16T06:17:00.904Z,23.17
2018-05-16T06:19:28.546Z,20.60
2018-05-16T06:21:55.977Z,22.93
2018-05-16T06:24:23.483Z,17.27
2018-05-16T06:26:51.021Z,22.00
2018-05-16T06:29:18.531Z,24.07
2018-05-16T06:31:46.811Z,20.67
2018-05-16T06:34:14.390Z,22.83
2018-05-16T06:36:41.897Z,14.23
2018-05-16T06:39:09.450Z,22.50
2018-05-16T06:41:36.992Z,24.07
2018-05-16T06:44:04.524Z,23.90
2018-05-16T06:46:32.030Z,24.20
2018-05-16T06:48:59.569Z,23.07
2018-05-16T06:51:27.090Z,20.60
2018-05-16T06:53:54.622Z,23.17
2018-05-16T06:56:22.186Z,19.13
2018-05-16T06:58:49.653Z,20.47
2018-05-16T07:01:17.177Z,21.97
2018-05-16T07:03:44.717Z,22.67
2018-05-16T07:06:13.006Z,20.07
2018-05-16T07:08:40.505Z,22.63
2018-05-16T07:11:08.109Z,20.10
2018-05-16T07:13:35.770Z,23.07
2018-05-16T07:16:03.209Z,19.43
2018-05-16T07:18:30.758Z,21.73
2018-05-16T07:20:58.258Z,23.17
2018-05-16T07:23:25.773Z,18.97
2018-05-16T07:25:53.328Z,26.17
2018-05-16T07:28:20.832Z,20.97
2018-05-16T07:30:49.094Z,23.20
2018-05-16T07:33:16.639Z,17.70
2018-05-16T07:35:44.153Z,23.67
2018-05-16T07:38:11.669Z,18.63
2018-05-16T07:40:39.190Z,21.20
2018-05-16T07:43:06.706Z,22.63
2018-05-16T07:45:34.977Z,22.43
2018-05-16T07:48:02.529Z,20.10
2018-05-16T07:50:30.075Z,21.70
2018-05-16T07:52:57.594Z,21.00
2018-05-16T07:55:25.126Z,20.97
2018-05-16T07:57:53.404Z,16.23
2018-05-16T08:00:21.715Z,21.20
2018-05-16T08:02:49.272Z,22.83
2018-05-16T08:05:16.778Z,24.00
2018-05-16T08:07:44.294Z,22.17
2018-05-16T08:10:11.823Z,20.77
2018-05-16T08:12:40.181Z,19.10
2018-05-16T08:15:09.222Z,18.47
2018-05-16T08:17:36.774Z,18.63
2018-05-16T08:20:04.279Z,17.07
2018-05-16T08:22:31.785Z,17.90
2018-05-16T08:25:00.082Z,20.60
2018-05-16T08:27:28.359Z,16.50
2018-05-16T08:29:55.861Z,16.10
2018-05-16T08:32:23.405Z,21.00
2018-05-16T08:34:50.907Z,26.27
2018-05-16T08:37:19.193Z,20.83
2018-05-16T08:39:47.530Z,19.63
2018-05-16T08:42:15.044Z,22.40
2018-05-16T08:44:43.337Z,20.67
2018-05-16T08:47:10.900Z,19.07
2018-05-16T08:49:38.418Z,11.93
2018-05-16T08:52:05.961Z,17.43
2018-05-16T08:54:33.504Z,13.27
2018-05-16T08:57:01.010Z,20.30
2018-05-16T08:59:29.486Z,16.10
2018-05-16T09:01:57.765Z,18.17
2018-05-16T09:04:25.331Z,16.33
2018-05-16T09:06:52.874Z,19.37
2018-05-16T09:09:20.422Z,17.60
2018-05-16T09:11:47.939Z,18.70
2018-05-16T09:14:15.462Z,17.30
2018-05-16T09:16:43.000Z,19.50
2018-05-16T09:19:10.515Z,16.43
2018-05-16T09:21:38.047Z,16.37
2018-05-16T09:24:06.335Z,15.27
2018-05-16T09:26:33.861Z,15.43
2018-05-16T09:29:01.371Z,15.13
2018-05-16T09:31:28.877Z,19.93
2018-05-16T09:33:56.419Z,15.97
2018-05-16T09:36:23.936Z,19.67
2018-05-16T09:38:51.438Z,17.67
2018-05-16T09:41:18.983Z,15.13
2018-05-16T09:43:46.489Z,12.97
2018-05-16T09:46:13.991Z,15.03
2018-05-16T09:48:41.597Z,16.23
2018-05-16T09:51:09.133Z,15.23
2018-05-16T09:53:36.654Z,15.03
2018-05-16T09:56:04.186Z,15.67
2018-05-16T09:58:33.189Z,13.97
2018-05-16T10:01:00.733Z,14.63
2018-05-16T10:03:28.269Z,15.13
2018-05-16T10:05:55.798Z,12.53
2018-05-16T10:08:23.374Z,15.00
2018-05-16T10:10:50.890Z,13.40
2018-05-16T10:13:18.427Z,12.83
2018-05-16T10:15:45.926Z,11.47
2018-05-16T10:18:13.448Z,11.63
2018-05-16T10:20:40.989Z,10.57
2018-05-16T10:23:08.494Z,7.80
2018-05-16T10:25:35.996Z,7.23
2018-05-16T10:28:04.269Z,9.10
2018-05-16T10:30:31.773Z,8.50
2018-05-16T10:32:59.275Z,8.30
2018-05-16T10:35:26.821Z,8.23
2018-05-16T10:37:54.354Z,7.13
2018-05-16T10:40:21.916Z,6.17
2018-05-16T10:42:49.446Z,6.70
2018-05-16T10:45:16.948Z,7.20
2018-05-16T10:47:44.444Z,7.93
2018-05-16T10:50:11.961Z,7.37
2018-05-16T10:52:39.464Z,9.07
2018-05-16T10:55:07.004Z,7.40
2018-05-16T10:57:35.323Z,6.43
2018-05-16T11:00:02.831Z,6.90
2018-05-16T11:02:30.330Z,8.03
2018-05-16T11:04:57.866Z,8.97
2018-05-16T11:07:26.163Z,8.40
2018-05-16T11:09:54.444Z,8.93
2018-05-16T11:12:21.963Z,8.10
2018-05-16T11:14:50.273Z,8.23
2018-05-16T11:17:17.766Z,8.20
2018-05-16T11:19:45.273Z,7.67
2018-05-16T11:22:12.873Z,7.10
2018-05-16T11:24:40.398Z,6.73
2018-05-16T11:27:07.914Z,6.60
2018-05-16T11:29:35.466Z,7.27
2018-05-16T11:32:02.980Z,7.20
2018-05-16T11:34:30.495Z,6.83
2018-05-16T11:36:58.028Z,7.03
2018-05-16T11:39:25.625Z,8.07
2018-05-16T11:41:53.254Z,9.87
2018-05-16T11:44:20.674Z,8.23
2018-05-16T11:46:48.169Z,8.60
2018-05-16T11:49:15.747Z,7.73
2018-05-16T11:51:44.057Z,13.40
2018-05-16T11:54:11.593Z,9.60
2018-05-16T11:56:39.097Z,8.97
2018-05-16T11:59:06.640Z,9.37
2018-05-16T12:01:34.140Z,9.90
2018-05-16T12:04:01.670Z,9.27
2018-05-16T12:06:29.193Z,10.30
2018-05-16T12:08:56.694Z,10.27
2018-05-16T12:11:24.230Z,10.57
2018-05-16T12:13:51.751Z,12.70
2018-05-16T12:16:19.267Z,7.73
2018-05-16T12:18:46.807Z,10.20
2018-05-16T12:21:15.089Z,9.93
2018-05-16T12:23:42.611Z,9.43
2018-05-16T12:26:10.159Z,11.13
2018-05-16T12:28:38.237Z,7.37
2018-05-16T12:31:05.671Z,6.33
2018-05-16T12:33:33.193Z,9.40
2018-05-16T12:36:00.754Z,9.23
2018-05-16T12:38:28.254Z,8.23
2018-05-16T12:40:56.535Z,9.00
2018-05-16T12:43:29.915Z,10.67
2018-05-16T12:45:57.532Z,11.90
2018-05-16T12:48:25.027Z,9.27
2018-05-16T12:50:52.524Z,11.83
2018-05-16T12:53:20.049Z,12.10
2018-05-16T12:55:47.665Z,12.33
2018-05-16T12:58:15.146Z,11.50
2018-05-16T13:00:42.658Z,13.63
2018-05-16T13:03:10.194Z,14.67
2018-05-16T13:05:37.712Z,11.53
2018-05-16T13:08:05.239Z,13.97
2018-05-16T13:10:33.518Z,13.23
2018-05-16T13:13:01.843Z,14.10
2018-05-16T13:15:29.331Z,13.37
2018-05-16T13:17:56.924Z,12.40
2018-05-16T13:20:24.431Z,18.17
2018-05-16T13:22:51.941Z,16.07
2018-05-16T13:25:19.490Z,17.87
2018-05-16T13:27:47.027Z,19.17
2018-05-16T13:30:14.561Z,20.00
2018-05-16T13:32:42.107Z,18.83
2018-05-16T13:35:09.616Z,16.37
2018-05-16T13:37:37.145Z,19.70
2018-05-16T13:40:04.672Z,20.23
2018-05-16T13:42:32.182Z,24.10
2018-05-16T13:44:59.702Z,20.20
2018-05-16T13:47:27.241Z,17.40
2018-05-16T13:49:55.523Z,21.03
2018-05-16T13:52:23.042Z,19.07
2018-05-16T13:54:50.614Z,19.50
2018-05-16T13:57:18.256Z,15.33
2018-05-16T13:59:45.774Z,18.00
2018-05-16T14:02:14.075Z,18.97
2018-05-16T14:04:41.598Z,19.90
2018-05-16T14:07:09.105Z,18.80
2018-05-16T14:09:36.637Z,18.97
2018-05-16T14:12:04.919Z,12.73
2018-05-16T14:14:32.429Z,11.10
2018-05-16T14:16:59.933Z,18.63
2018-05-16T14:19:27.603Z,12.77
2018-05-16T14:21:55.148Z,12.67
2018-05-16T14:24:22.666Z,9.77
2018-05-16T14:26:50.242Z,11.47
2018-05-16T14:29:18.215Z,13.00
2018-05-16T14:31:45.719Z,8.87
2018-05-16T14:34:13.232Z,15.27
2018-05-16T14:36:40.742Z,12.70
2018-05-16T14:39:09.005Z,7.70
2018-05-16T14:41:36.538Z,8.07
2018-05-16T14:44:04.035Z,9.57
2018-05-16T14:46:31.534Z,11.97
2018-05-16T14:48:59.059Z,12.10
2018-05-16T14:51:26.595Z,10.90
2018-05-16T14:53:54.106Z,13.50
2018-05-16T14:56:21.648Z,8.90
2018-05-16T14:58:49.147Z,9.33
2018-05-16T15:01:16.680Z,14.93
2018-05-16T15:03:44.215Z,9.63
2018-05-16T15:06:11.753Z,13.07
2018-05-16T15:08:40.029Z,13.63
2018-05-16T15:11:07.591Z,17.43
2018-05-16T15:13:35.119Z,14.13
2018-05-16T15:16:02.666Z,18.40
2018-05-16T15:18:30.205Z,18.03
2018-05-16T15:20:57.739Z,15.03
2018-05-16T15:23:25.278Z,18.87
2018-05-16T15:25:52.811Z,14.17
2018-05-16T15:28:20.317Z,11.53
2018-05-16T15:30:47.839Z,8.07
2018-05-16T15:33:15.472Z,21.63
2018-05-16T15:35:43.815Z,15.33
2018-05-16T15:38:12.114Z,17.07
2018-05-16T15:40:39.630Z,16.80
2018-05-16T15:43:07.186Z,11.90
2018-05-16T15:45:34.698Z,18.30
2018-05-16T15:48:02.232Z,17.43
2018-05-16T15:50:30.525Z,20.03
2018-05-16T15:52:58.039Z,12.47
2018-05-16T15:55:25.593Z,13.10
2018-05-16T15:57:53.101Z,12.47
2018-05-16T16:00:21.375Z,17.93
2018-05-16T16:02:48.969Z,15.43
2018-05-16T16:05:16.546Z,16.00
2018-05-16T16:07:44.068Z,18.60
2018-05-16T16:10:11.623Z,12.77
2018-05-16T16:12:39.904Z,19.40
2018-05-16T16:15:07.469Z,14.70
2018-05-16T16:17:35.006Z,10.40
2018-05-16T16:20:03.141Z,13.73
2018-05-16T16:22:30.679Z,16.47
2018-05-16T16:24:58.220Z,15.57
2018-05-16T16:27:25.731Z,14.90
2018-05-16T16:29:53.270Z,19.57
2018-05-16T16:32:20.786Z,15.60
2018-05-16T16:34:48.346Z,17.70
2018-05-16T16:37:16.487Z,12.63
2018-05-16T16:39:44.026Z,18.10
2018-05-16T16:42:11.531Z,17.17
2018-05-16T16:44:39.060Z,15.77
2018-05-16T16:47:06.579Z,10.80
2018-05-16T16:49:34.088Z,18.03
2018-05-16T16:52:01.688Z,13.83
2018-05-16T16:54:30.017Z,15.07
2018-05-16T16:56:57.546Z,24.93
2018-05-16T16:59:25.824Z,13.80
2018-05-16T17:01:53.326Z,15.67
2018-05-16T17:04:20.881Z,16.77
2018-05-16T17:06:48.421Z,17.83
2018-05-16T17:09:15.927Z,11.30
2018-05-16T17:11:43.462Z,13.80
2018-05-16T17:14:11.015Z,9.93
2018-05-16T17:16:40.350Z,17.58
2018-05-16T17:19:07.842Z,14.40
2018-05-16T17:21:36.150Z,22.57
2018-05-16T17:24:03.670Z,18.77
2018-05-16T17:26:31.964Z,14.20
2018-05-16T17:28:59.526Z,14.57
2018-05-16T17:31:27.075Z,19.13
2018-05-16T17:33:54.619Z,16.07
2018-05-16T17:36:22.145Z,20.00
2018-05-16T17:38:49.679Z,16.10
2018-05-16T17:41:18.004Z,13.30
2018-05-16T17:43:45.612Z,13.77
2018-05-16T17:46:13.854Z,8.10
2018-05-16T17:48:41.255Z,20.67
2018-05-16T17:51:08.791Z,11.27
2018-05-16T17:53:37.477Z,9.40
2018-05-16T17:56:05.761Z,13.90
2018-05-16T17:58:33.291Z,14.23
2018-05-16T18:01:01.748Z,17.13
2018-05-16T18:03:29.233Z,12.53
2018-05-16T18:05:56.763Z,17.17
2018-05-16T18:08:24.302Z,15.20
2018-05-16T18:10:52.315Z,15.17
2018-05-16T18:16:42.584Z,11.53
2018-05-16T18:19:10.124Z,15.43
2018-05-16T18:21:38.421Z,15.53
2018-05-16T18:24:06.056Z,18.73
2018-05-16T18:26:33.774Z,15.47
2018-05-16T18:29:01.310Z,14.50
2018-05-16T18:31:28.866Z,20.50
2018-05-16T18:33:57.178Z,20.90
2018-05-16T18:36:24.698Z,15.93
2018-05-16T18:38:53.009Z,19.40
2018-05-16T18:41:20.561Z,15.77
2018-05-16T18:43:48.129Z,14.60
2018-05-16T18:46:15.625Z,14.17
2018-05-16T18:48:43.158Z,17.57
2018-05-16T18:51:10.672Z,16.50
2018-05-16T18:53:39.096Z,18.80
2018-05-16T18:56:06.631Z,13.53
2018-05-16T18:58:34.180Z,14.37
2018-05-16T19:01:02.825Z,17.30
2018-05-16T19:03:30.343Z,14.77
2018-05-16T19:05:58.122Z,10.73
2018-05-16T19:08:25.714Z,15.43
2018-05-16T19:10:53.625Z,12.30
2018-05-16T19:13:21.895Z,13.37
2018-05-16T19:15:49.456Z,15.90
2018-05-16T19:18:16.964Z,14.50
2018-05-16T19:20:44.508Z,13.23
2018-05-16T19:23:12.054Z,13.40
2018-05-16T19:25:40.326Z,18.43
2018-05-16T19:28:08.632Z,8.80
2018-05-16T19:30:36.155Z,16.00
2018-05-16T19:33:04.461Z,16.03
2018-05-16T19:35:32.034Z,18.77
2018-05-16T19:37:59.572Z,14.80
2018-05-16T19:40:27.139Z,13.77
2018-05-16T19:42:55.411Z,15.80
2018-05-16T19:45:23.706Z,13.73
2018-05-16T19:47:51.215Z,13.70
2018-05-16T19:50:18.740Z,16.37
2018-05-16T19:52:46.395Z,18.27
2018-05-16T19:55:13.893Z,19.07
2018-05-16T19:57:41.422Z,12.40
2018-05-16T20:00:08.949Z,15.43
2018-05-16T20:02:36.473Z,15.03
2018-05-16T20:05:03.998Z,10.57
2018-05-16T20:07:31.555Z,15.63
2018-05-16T20:09:59.087Z,14.00
2018-05-16T20:12:26.610Z,15.43
2018-05-16T20:14:54.272Z,15.37
2018-05-16T20:17:21.707Z,11.33
2018-05-16T20:19:49.226Z,14.50
2018-05-16T20:22:17.926Z,14.90
2018-05-16T20:24:45.573Z,15.67
2018-05-16T20:27:13.903Z,12.73
2018-05-16T20:29:41.534Z,16.00
2018-05-16T20:32:09.072Z,16.20
2018-05-16T20:34:37.334Z,18.13
2018-05-16T20:37:04.865Z,12.60
2018-05-16T20:39:32.466Z,12.77
2018-05-16T20:41:59.995Z,16.03
2018-05-16T20:44:27.494Z,8.90
2018-05-16T20:46:55.787Z,14.07
2018-05-16T20:49:23.304Z,11.63
2018-05-16T20:51:51.232Z,11.93
2018-05-16T20:54:19.374Z,11.67
2018-05-16T20:56:47.678Z,17.03
2018-05-16T20:59:15.191Z,12.43
2018-05-16T21:01:42.695Z,14.40
2018-05-16T21:04:10.210Z,12.17
2018-05-16T21:06:37.741Z,18.23
2018-05-16T21:09:06.198Z,13.63
2018-05-16T21:11:33.739Z,15.67
2018-05-16T21:14:02.063Z,13.70
2018-05-16T21:16:29.569Z,9.40
2018-05-16T21:18:57.878Z,13.80
2018-05-16T21:21:27.090Z,10.97
2018-05-16T21:23:54.687Z,11.77
2018-05-16T21:26:22.227Z,7.67
2018-05-16T21:28:49.746Z,10.93
2018-05-16T21:31:18.037Z,10.67
2018-05-16T21:33:45.543Z,12.30
2018-05-16T21:36:13.077Z,13.57
2018-05-16T21:38:40.593Z,13.20
2018-05-16T21:41:09.213Z,13.10
2018-05-16T21:43:36.726Z,14.27
2018-05-16T21:46:04.322Z,17.13
2018-05-16T21:48:31.831Z,14.53
2018-05-16T21:50:59.359Z,15.43
2018-05-16T21:53:26.858Z,12.57
2018-05-16T21:55:54.599Z,10.00
2018-05-16T21:58:22.149Z,11.93
2018-05-16T22:00:49.669Z,15.73
2018-05-16T22:03:17.947Z,12.77
2018-05-16T22:05:46.270Z,14.67
2018-05-16T22:08:13.771Z,20.30
2018-05-16T22:10:41.435Z,12.80
2018-05-16T22:13:08.965Z,17.77
2018-05-16T22:15:36.544Z,15.77
2018-05-16T22:18:04.063Z,14.43
2018-05-16T22:20:31.602Z,14.27
2018-05-16T22:22:59.874Z,13.43
2018-05-16T22:25:28.149Z,14.67
2018-05-16T22:27:55.765Z,11.40
2018-05-16T22:30:28.885Z,13.27
2018-05-16T22:33:02.043Z,18.13
2018-05-16T22:35:35.248Z,18.17
2018-05-16T22:38:08.450Z,19.53
2018-05-16T22:40:41.670Z,16.27
2018-05-16T22:43:08.717Z,20.03
2018-05-16T22:45:41.765Z,13.83
2018-05-16T22:48:09.293Z,14.70
2018-05-16T22:50:36.827Z,14.73
2018-05-16T22:53:04.371Z,10.90
2018-05-16T22:55:31.874Z,15.00
2018-05-16T22:57:59.427Z,15.40
2018-05-16T23:00:27.910Z,17.23
2018-05-16T23:02:55.434Z,13.60
2018-05-16T23:05:22.934Z,10.63
2018-05-16T23:07:50.434Z,14.07
2018-05-16T23:10:17.962Z,15.70
2018-05-16T23:12:45.474Z,12.17
2018-05-16T23:15:12.978Z,11.73
2018-05-16T23:17:40.496Z,16.63
2018-05-16T23:20:07.994Z,19.37
2018-05-16T23:22:35.514Z,12.70
2018-05-16T23:25:03.042Z,15.90
2018-05-16T23:27:30.558Z,13.67
2018-05-16T23:29:58.133Z,14.47
2018-05-16T23:32:25.682Z,13.57
2018-05-16T23:34:53.188Z,13.70
2018-05-16T23:37:20.737Z,15.73
2018-05-16T23:39:48.246Z,15.77
2018-05-16T23:42:15.792Z,13.43
2018-05-16T23:44:43.303Z,16.80
2018-05-16T23:47:10.867Z,16.30
2018-05-16T23:49:39.317Z,18.00
2018-05-16T23:52:06.870Z,14.70
2018-05-16T23:54:34.373Z,8.03
2018-05-16T23:57:02.045Z,15.47
2018-05-16T23:59:29.627Z,13.13
